Time;durP1;ratioP1;P1;durP2;ratioP2;P2;SDS_P1;SDS_P2;PMS_P1;PMS_P2;Temp;Humidity;BMP_temperature;BMP_pressure;BME280_temperature;BME280_humidity;BME280_pressure;Samples;Min_cycle;Max_cycle;Signal;HPM_P1;HPM_P2
2023/03/30 00:02:49;;;;;;;13.48;3.42;;;17.30;55.90;;;;;;5991008;29;20026;-69
2023/03/30 00:05:50;;;;;;;13.15;3.08;;;17.20;56.20;;;;;;5989456;29;20109;-70
2023/03/30 00:08:57;;;;;;;16.88;3.58;;;17.20;56.30;;;;;;6019505;29;20452;-69
2023/03/30 00:12:02;;;;;;;19.33;3.97;;;17.20;56.60;;;;;;6020348;29;20053;-70
2023/03/30 00:15:05;;;;;;;14.23;3.33;;;17.10;56.90;;;;;;5990413;29;20109;-70
2023/03/30 00:18:06;;;;;;;19.70;3.67;;;17.10;57.10;;;;;;5990798;29;20026;-70
2023/03/30 00:21:08;;;;;;;13.48;2.97;;;17.10;57.20;;;;;;5991270;29;20083;-70
2023/03/30 00:24:10;;;;;;;12.07;3.33;;;17.00;57.30;;;;;;5989748;29;20041;-69
2023/03/30 00:27:10;;;;;;;15.45;3.25;;;16.90;57.50;;;;;;5990151;29;20037;-70
2023/03/30 00:30:15;;;;;;;21.15;3.50;;;16.90;57.70;;;;;;5988559;29;20087;-69
2023/03/30 00:33:16;;;;;;;16.33;4.25;;;16.90;57.90;;;;;;5989822;29;20034;-69
2023/03/30 00:36:17;;;;;;;12.48;3.40;;;16.90;57.90;;;;;;5989210;29;20078;-70
2023/03/30 00:39:21;;;;;;;32.08;3.72;;;16.90;58.00;;;;;;5990017;29;20050;-69
2023/03/30 00:42:22;;;;;;;11.55;3.20;;;16.90;57.90;;;;;;5989681;29;20498;-69
2023/03/30 00:45:35;;;;;;;16.98;3.30;;;16.90;58.00;;;;;;5988809;29;20037;-68
2023/03/30 00:48:37;;;;;;;18.50;4.30;;;16.90;58.00;;;;;;5988206;29;20076;-69
2023/03/30 00:51:41;;;;;;;13.00;2.72;;;16.90;57.90;;;;;;5973971;29;20022;-70
2023/03/30 00:54:42;;;;;;;16.77;3.38;;;16.90;58.00;;;;;;5988779;29;20041;-70
2023/03/30 00:57:43;;;;;;;14.07;3.17;;;16.90;58.00;;;;;;5987902;29;20125;-69
2023/03/30 01:00:47;;;;;;;16.75;4.20;;;16.90;58.00;;;;;;6003499;29;20133;-71
2023/03/30 01:03:49;;;;;;;17.80;3.90;;;16.90;58.00;;;;;;5990192;29;20058;-69
2023/03/30 01:06:51;;;;;;;10.82;3.35;;;16.90;58.10;;;;;;5989721;29;20120;-70
2023/03/30 01:09:51;;;;;;;25.65;3.92;;;16.90;58.20;;;;;;5987716;29;20789;-69
2023/03/30 01:12:52;;;;;;;8.30;2.92;;;16.90;58.20;;;;;;5989025;29;20038;-69
2023/03/30 01:16:03;;;;;;;15.07;2.92;;;16.80;58.30;;;;;;5989780;29;20030;-69
2023/03/30 01:19:32;;;;;;;13.23;3.72;;;16.70;58.40;;;;;;5988074;29;20047;-69
2023/03/30 01:22:54;;;;;;;12.45;2.83;;;16.80;58.50;;;;;;5988486;29;20134;-70
2023/03/30 01:26:33;;;;;;;10.70;2.67;;;16.80;58.50;;;;;;5988550;29;20046;-69
2023/03/30 01:30:15;;;;;;;10.35;2.83;;;16.80;58.60;;;;;;5974614;29;20594;-70
2023/03/30 01:33:46;;;;;;;7.78;2.55;;;16.70;58.60;;;;;;5930425;30;20063;-69
2023/03/30 01:37:16;;;;;;;11.93;2.67;;;16.70;58.60;;;;;;5948971;29;20075;-72
2023/03/30 01:41:05;;;;;;;9.55;2.55;;;16.70;58.60;;;;;;5934660;30;20042;-71
2023/03/30 01:44:31;;;;;;;9.30;2.67;;;16.70;58.50;;;;;;5854104;30;20055;-74
2023/03/30 01:48:03;;;;;;;11.75;2.55;;;16.80;58.50;;;;;;5868296;30;20073;-69
2023/03/30 01:51:11;;;;;;;16.95;2.90;;;16.80;58.40;;;;;;5853862;30;20033;-69
2023/03/30 01:54:19;;;;;;;7.00;2.40;;;16.80;58.40;;;;;;5868203;30;20099;-70
2023/03/30 01:57:34;;;;;;;10.23;1.90;;;16.80;58.30;;;;;;5854110;30;20686;-69
2023/03/30 02:00:37;;;;;;;10.00;2.47;;;16.80;58.20;;;;;;5854151;30;20543;-69
2023/03/30 02:03:40;;;;;;;13.85;2.70;;;16.80;58.10;;;;;;5840499;30;20079;-69
2023/03/30 02:07:06;;;;;;;14.60;2.13;;;16.80;58.10;;;;;;5832410;30;20079;-69
2023/03/30 02:10:09;;;;;;;11.25;2.30;;;16.80;58.20;;;;;;5885817;30;20168;-70
2023/03/30 02:13:11;;;;;;;9.68;3.20;;;16.70;58.10;;;;;;5901347;30;20063;-70
2023/03/30 02:16:26;;;;;;;5.07;2.30;;;16.70;58.10;;;;;;5899875;30;20187;-71
2023/03/30 02:19:29;;;;;;;8.52;2.28;;;16.70;58.10;;;;;;5932223;29;20102;-70
2023/03/30 02:22:31;;;;;;;8.07;2.00;;;16.70;58.10;;;;;;5992302;29;20052;-73
2023/03/30 02:25:38;;;;;;;9.20;2.38;;;16.70;58.00;;;;;;6023336;29;20217;-69
2023/03/30 02:28:39;;;;;;;7.20;2.17;;;16.70;58.00;;;;;;5992402;29;20137;-70
2023/03/30 02:31:42;;;;;;;13.25;2.65;;;16.70;58.10;;;;;;5991677;29;20353;-69
2023/03/30 02:35:01;;;;;;;11.05;2.42;;;16.70;58.00;;;;;;6022165;29;20042;-70
2023/03/30 02:38:17;;;;;;;;;;;16.60;58.10;;;;;;5991284;29;20084;-70
2023/03/30 02:41:52;;;;;;;7.25;1.85;;;16.60;58.10;;;;;;5993412;29;19991;-72
2023/03/30 02:45:21;;;;;;;9.52;2.60;;;16.60;58.00;;;;;;5992154;29;20033;-69
2023/03/30 02:48:40;;;;;;;16.48;2.08;;;16.50;58.10;;;;;;5992612;29;20041;-71
2023/03/30 02:51:47;;;;;;;;;;;16.50;58.20;;;;;;5991468;29;20197;-70
2023/03/30 02:54:58;;;;;;;8.85;2.60;;;16.50;58.20;;;;;;6022035;29;20353;-70
2023/03/30 02:58:32;;;;;;;15.13;2.85;;;16.50;58.10;;;;;;5991130;29;20141;-69
2023/03/30 03:02:27;;;;;;;19.50;1.98;;;16.40;58.10;;;;;;5992697;29;20034;-70
2023/03/30 03:05:36;;;;;;;4.07;1.35;;;16.40;58.10;;;;;;5970177;29;20046;-70
2023/03/30 03:08:46;;;;;;;9.32;1.95;;;16.40;58.00;;;;;;5969651;29;20160;-71
2023/03/30 03:11:51;;;;;;;4.95;1.65;;;16.40;57.90;;;;;;5964306;29;20113;-70
2023/03/30 03:14:53;;;;;;;14.13;2.40;;;16.40;57.90;;;;;;5955337;29;20034;-70
2023/03/30 03:17:54;;;;;;;12.18;2.78;;;16.50;57.90;;;;;;5971227;29;20034;-70
2023/03/30 03:20:55;;;;;;;12.40;2.78;;;16.50;57.90;;;;;;5970506;29;20042;-69
2023/03/30 03:23:57;;;;;;;16.00;3.13;;;16.50;58.00;;;;;;5977575;29;20070;-71
2023/03/30 03:27:08;;;;;;;13.30;2.55;;;16.50;58.00;;;;;;5969964;29;21161;-70
2023/03/30 03:30:25;;;;;;;16.73;3.95;;;16.60;58.10;;;;;;5969855;29;20065;-70
2023/03/30 03:33:35;;;;;;;10.15;2.95;;;16.60;58.20;;;;;;5971069;29;20466;-70
2023/03/30 03:36:45;;;;;;;16.45;2.83;;;16.60;58.20;;;;;;5970770;29;20034;-70
2023/03/30 03:39:46;;;;;;;11.13;2.58;;;16.60;58.20;;;;;;5988761;29;20658;-71
2023/03/30 03:42:49;;;;;;;14.30;2.53;;;16.50;58.20;;;;;;5990111;29;20042;-68
2023/03/30 03:45:51;;;;;;;16.95;2.58;;;16.50;58.30;;;;;;5990821;29;20033;-69
2023/03/30 03:48:52;;;;;;;4.40;1.65;;;16.50;58.00;;;;;;6004739;29;20029;-70
2023/03/30 03:51:53;;;;;;;9.90;1.73;;;16.50;57.80;;;;;;5992247;29;20114;-70
2023/03/30 03:54:54;;;;;;;6.32;1.25;;;16.40;57.60;;;;;;5989154;29;20054;-71
2023/03/30 03:57:55;;;;;;;6.47;1.40;;;16.50;57.40;;;;;;5988162;29;20306;-70
2023/03/30 04:01:00;;;;;;;10.20;1.83;;;16.40;57.10;;;;;;5989721;29;20137;-69
2023/03/30 04:04:01;;;;;;;5.40;1.20;;;16.40;57.00;;;;;;6019792;29;20444;-70
2023/03/30 04:07:01;;;;;;;15.00;2.20;;;16.40;56.90;;;;;;5990866;29;20038;-69
2023/03/30 04:10:04;;;;;;;8.70;2.08;;;16.50;56.90;;;;;;5989231;29;20475;-69
2023/03/30 04:13:40;;;;;;;7.47;1.48;;;16.60;56.90;;;;;;5965054;29;20058;-69
2023/03/30 04:17:03;;;;;;;5.78;1.70;;;16.60;56.70;;;;;;5964665;29;20042;-71
2023/03/30 04:20:22;;;;;;;8.25;1.95;;;16.50;56.50;;;;;;5944303;29;20034;-71
2023/03/30 04:23:58;;;;;;;9.55;1.77;;;16.60;56.50;;;;;;5967486;29;20043;-69
2023/03/30 04:27:17;;;;;;;;;;;16.50;56.50;;;;;;5965000;29;20038;-71
2023/03/30 04:30:39;;;;;;;8.85;2.13;;;16.50;56.60;;;;;;5964317;29;19928;-70
2023/03/30 04:34:20;;;;;;;10.05;1.60;;;16.50;56.80;;;;;;5958038;29;20030;-70
2023/03/30 04:37:41;;;;;;;6.13;1.58;;;16.50;56.50;;;;;;5965845;29;20046;-69
2023/03/30 04:41:00;;;;;;;12.65;2.65;;;16.50;56.20;;;;;;5964644;29;20050;-70
2023/03/30 04:44:27;;;;;;;5.63;2.47;;;16.40;56.20;;;;;;5963590;29;20097;-70
2023/03/30 04:47:38;;;;;;;12.55;2.47;;;16.60;56.50;;;;;;5966899;29;20050;-69
2023/03/30 04:50:57;;;;;;;10.32;2.63;;;16.50;56.70;;;;;;5990237;29;20042;-70
2023/03/30 04:54:22;;;;;;;6.32;2.03;;;16.50;57.00;;;;;;5990252;29;20110;-70
2023/03/30 04:57:49;;;;;;;4.47;1.63;;;16.50;57.10;;;;;;5992936;29;20464;-72
2023/03/30 05:01:16;;;;;;;18.52;2.30;;;16.50;56.90;;;;;;5977161;29;20046;-71
2023/03/30 05:04:46;;;;;;;9.00;2.05;;;16.50;56.70;;;;;;5942323;29;20035;-71
2023/03/30 05:08:05;;;;;;;6.47;1.70;;;16.50;56.40;;;;;;5942519;29;20066;-71
2023/03/30 05:11:29;;;;;;;9.77;1.77;;;16.40;56.10;;;;;;5922946;29;20047;-72
2023/03/30 05:14:54;;;;;;;7.00;1.35;;;16.40;56.00;;;;;;5920417;29;20039;-71
2023/03/30 05:18:14;;;;;;;5.60;1.52;;;16.40;55.70;;;;;;5924231;30;20055;-73
2023/03/30 05:21:15;;;;;;;2.10;0.90;;;16.40;55.60;;;;;;5924933;29;20048;-71
2023/03/30 05:24:35;;;;;;;13.88;1.73;;;16.40;55.30;;;;;;5924041;29;20043;-72
2023/03/30 05:27:48;;;;;;;6.65;1.38;;;16.40;54.80;;;;;;5923495;30;20198;-71
2023/03/30 05:30:57;;;;;;;6.10;1.15;;;16.40;54.50;;;;;;5924351;29;20043;-71
2023/03/30 05:34:22;;;;;;;4.53;1.50;;;16.40;54.20;;;;;;5924449;30;20108;-72
2023/03/30 05:37:53;;;;;;;10.55;1.85;;;16.40;53.90;;;;;;5916324;30;20047;-72
2023/03/30 05:41:14;;;;;;;8.43;1.90;;;16.50;54.00;;;;;;5888868;30;20063;-72
2023/03/30 05:44:37;;;;;;;7.75;2.58;;;16.50;54.20;;;;;;5879689;30;20081;-71
2023/03/30 05:47:59;;;;;;;7.00;2.00;;;16.50;54.90;;;;;;5901783;30;20389;-72
2023/03/30 05:51:38;;;;;;;6.28;1.27;;;16.50;54.30;;;;;;5913427;30;20129;-71
2023/03/30 05:54:51;;;;;;;10.25;1.50;;;16.50;53.90;;;;;;5898073;30;20466;-73
2023/03/30 05:58:07;;;;;;;10.75;1.52;;;16.60;53.40;;;;;;5898031;30;20122;-70
2023/03/30 06:01:28;;;;;;;9.43;1.50;;;16.70;52.80;;;;;;5912723;30;20082;-71
2023/03/30 06:04:30;;;;;;;13.00;1.23;;;16.70;52.30;;;;;;5897952;30;20087;-72
2023/03/30 06:07:31;;;;;;;3.05;1.27;;;16.80;52.70;;;;;;5884089;30;20035;-71
2023/03/30 06:10:33;;;;;;;13.18;1.52;;;16.80;51.70;;;;;;5884919;30;20047;-71
2023/03/30 06:13:34;;;;;;;14.10;1.90;;;17.00;51.40;;;;;;5912502;30;20069;-71
2023/03/30 06:16:35;;;;;;;6.93;1.55;;;16.90;51.00;;;;;;5912879;30;20505;-70
2023/03/30 06:19:38;;;;;;;4.32;1.08;;;16.90;50.70;;;;;;5934264;29;20035;-72
2023/03/30 06:22:40;;;;;;;2.80;1.30;;;17.00;50.40;;;;;;5966427;29;20126;-72
2023/03/30 06:25:51;;;;;;;13.75;2.05;;;17.00;50.30;;;;;;6007944;29;20073;-70
2023/03/30 06:28:53;;;;;;;4.88;1.33;;;17.00;50.20;;;;;;5992833;29;20481;-72
2023/03/30 06:31:54;;;;;;;7.10;1.10;;;17.10;49.90;;;;;;5992252;29;20133;-71
2023/03/30 06:35:31;;;;;;;6.38;0.93;;;17.10;49.40;;;;;;5992102;29;20040;-72
2023/03/30 06:38:36;;;;;;;4.50;1.33;;;17.20;48.70;;;;;;6022840;29;20085;-72
2023/03/30 06:41:37;;;;;;;9.75;1.30;;;17.20;48.10;;;;;;5992612;29;20038;-73
2023/03/30 06:44:38;;;;;;;5.88;1.20;;;17.20;47.90;;;;;;5992954;29;20758;-72
2023/03/30 06:47:45;;;;;;;4.68;1.30;;;17.20;47.50;;;;;;5992424;29;20045;-71
2023/03/30 06:50:46;;;;;;;8.75;1.10;;;17.20;47.00;;;;;;5992494;29;20439;-73
2023/03/30 06:53:56;;;;;;;7.00;1.20;;;17.30;47.00;;;;;;5994406;29;20040;-71
2023/03/30 06:56:57;;;;;;;8.30;1.02;;;17.30;46.90;;;;;;5995911;29;20488;-72
2023/03/30 06:59:58;;;;;;;2.67;0.90;;;17.30;46.60;;;;;;5992524;29;20072;-71
2023/03/30 07:03:19;;;;;;;7.38;1.00;;;17.40;46.40;;;;;;5995372;29;20113;-73
2023/03/30 07:06:34;;;;;;;11.65;1.17;;;17.40;46.20;;;;;;5978847;29;20083;-73
2023/03/30 07:09:35;;;;;;;9.40;1.20;;;17.50;46.10;;;;;;5994420;29;20042;-71
2023/03/30 07:12:38;;;;;;;3.40;1.02;;;17.50;46.10;;;;;;5993047;29;20040;-73
2023/03/30 07:15:38;;;;;;;6.35;1.27;;;17.50;46.10;;;;;;6007549;29;20086;-72
2023/03/30 07:18:40;;;;;;;16.58;1.45;;;17.50;46.60;;;;;;5991537;29;20065;-73
2023/03/30 07:21:41;;;;;;;2.97;1.15;;;17.60;46.90;;;;;;5991953;29;20033;-72
2023/03/30 07:24:45;;;;;;;5.45;1.27;;;17.70;46.90;;;;;;6009235;29;20611;-72
2023/03/30 07:27:46;;;;;;;3.45;1.10;;;17.80;46.80;;;;;;6024501;29;20042;-71
2023/03/30 07:30:48;;;;;;;11.75;1.40;;;17.90;46.60;;;;;;5994629;29;20033;-73
2023/03/30 07:33:50;;;;;;;5.20;1.30;;;18.00;46.50;;;;;;6022858;29;20555;-71
2023/03/30 07:36:57;;;;;;;9.80;1.42;;;18.00;46.20;;;;;;6025385;29;20030;-73
2023/03/30 07:40:06;;;;;;;3.38;1.00;;;18.10;46.20;;;;;;5993327;29;20034;-71
2023/03/30 07:43:07;;;;;;;2.42;1.02;;;18.10;46.10;;;;;;5992942;29;20136;-71
2023/03/30 07:46:13;;;;;;;4.35;1.73;;;18.10;46.00;;;;;;5992795;29;20182;-71
2023/03/30 07:49:18;;;;;;;3.42;1.17;;;18.10;46.00;;;;;;5992436;29;20618;-72
2023/03/30 07:52:19;;;;;;;3.28;0.93;;;18.10;46.10;;;;;;5995659;29;20179;-73
2023/03/30 07:55:29;;;;;;;6.32;1.00;;;18.10;46.10;;;;;;5995128;29;20022;-71
2023/03/30 07:58:39;;;;;;;9.80;1.70;;;18.20;46.10;;;;;;5994579;29;20052;-71
2023/03/30 08:01:40;;;;;;;8.00;1.42;;;18.20;45.90;;;;;;5994747;29;20089;-74
2023/03/30 08:04:52;;;;;;;6.15;1.17;;;18.20;46.00;;;;;;5998088;29;20502;-71
2023/03/30 08:07:59;;;;;;;4.47;1.23;;;18.30;46.10;;;;;;5995941;29;20061;-71
2023/03/30 08:11:07;;;;;;;7.93;1.08;;;18.20;46.00;;;;;;5995262;29;20067;-72
2023/03/30 08:14:08;;;;;;;3.25;0.85;;;18.30;46.00;;;;;;6027290;29;21188;-71
2023/03/30 08:17:09;;;;;;;3.63;1.13;;;18.40;45.90;;;;;;5995592;29;20129;-72
2023/03/30 08:20:10;;;;;;;7.80;1.65;;;18.40;45.80;;;;;;5995314;29;20463;-71
2023/03/30 08:23:12;;;;;;;8.85;1.75;;;18.40;45.70;;;;;;5995425;29;20033;-71
2023/03/30 08:26:13;;;;;;;12.30;1.58;;;18.50;45.90;;;;;;5993128;29;20543;-71
2023/03/30 08:29:13;;;;;;;8.05;1.45;;;18.50;46.00;;;;;;5993132;29;20058;-72
2023/03/30 08:32:15;;;;;;;8.13;1.23;;;18.60;46.00;;;;;;5993842;29;20037;-71
2023/03/30 08:35:15;;;;;;;5.00;1.50;;;18.70;45.70;;;;;;5996615;29;20498;-72
2023/03/30 08:38:17;;;;;;;5.80;1.35;;;18.70;45.50;;;;;;5994946;29;20364;-71
2023/03/30 08:41:27;;;;;;;6.60;1.10;;;18.80;45.50;;;;;;5995140;29;20065;-71
2023/03/30 08:44:31;;;;;;;2.75;1.52;;;18.90;45.20;;;;;;5995672;29;20062;-73
2023/03/30 08:47:37;;;;;;;3.65;0.90;;;18.90;45.10;;;;;;5996858;29;20038;-71
2023/03/30 08:50:37;;;;;;;4.82;1.30;;;18.90;45.00;;;;;;5997227;29;20137;-71
2023/03/30 08:53:38;;;;;;;11.07;1.90;;;18.90;45.00;;;;;;6001418;29;20033;-71
2023/03/30 08:56:51;;;;;;;6.03;1.40;;;18.90;45.00;;;;;;5998071;29;20117;-71
2023/03/30 08:59:57;;;;;;;12.80;1.48;;;18.90;44.90;;;;;;5998861;29;20099;-71
2023/03/30 09:03:30;;;;;;;10.73;1.10;;;19.00;44.60;;;;;;6001629;29;20034;-71
2023/03/30 09:06:45;;;;;;;10.52;1.27;;;18.90;44.70;;;;;;6000814;29;20387;-71
2023/03/30 09:09:47;;;;;;;3.45;1.00;;;19.00;44.80;;;;;;5995464;29;20204;-72
2023/03/30 09:12:51;;;;;;;8.57;1.73;;;19.00;44.70;;;;;;5994404;29;20110;-70
2023/03/30 09:16:28;;;;;;;6.82;1.38;;;19.10;44.60;;;;;;5999650;29;20142;-70
2023/03/30 09:19:54;;;;;;;11.88;2.05;;;19.10;44.50;;;;;;5995544;29;20048;-72
2023/03/30 09:22:58;;;;;;;5.07;1.77;;;19.10;44.20;;;;;;6002047;29;20037;-72
2023/03/30 09:26:19;;;;;;;3.83;1.50;;;19.10;44.20;;;;;;5998790;29;20033;-72
2023/03/30 09:29:32;;;;;;;6.70;1.20;;;19.20;44.20;;;;;;6028585;29;20382;-72
2023/03/30 09:32:41;;;;;;;6.38;1.42;;;19.20;44.20;;;;;;6001288;29;20105;-71
2023/03/30 09:35:58;;;;;;;6.10;1.40;;;19.30;44.10;;;;;;5997174;29;20386;-72
2023/03/30 09:38:58;;;;;;;9.13;2.17;;;19.30;44.10;;;;;;5995529;29;20069;-72
2023/03/30 09:42:17;;;;;;;17.05;1.92;;;19.50;44.00;;;;;;5998673;29;20197;-73
2023/03/30 09:45:18;;;;;;;6.85;1.23;;;19.70;43.70;;;;;;6001051;29;20101;-72
2023/03/30 09:48:20;;;;;;;10.43;1.45;;;19.80;43.50;;;;;;6000364;29;20071;-70
2023/03/30 09:51:24;;;;;;;3.95;1.33;;;19.80;43.30;;;;;;5994574;29;20495;-72
2023/03/30 09:54:36;;;;;;;9.38;1.23;;;19.80;43.20;;;;;;5991850;29;20113;-71
2023/03/30 09:57:37;;;;;;;10.93;2.17;;;19.80;43.30;;;;;;5996563;29;20044;-72
2023/03/30 10:00:39;;;;;;;4.45;1.23;;;20.00;43.20;;;;;;6025094;29;20038;-71
2023/03/30 10:03:42;;;;;;;6.25;1.55;;;20.10;43.00;;;;;;5998893;29;20042;-73
2023/03/30 10:06:48;;;;;;;4.78;1.50;;;20.20;42.70;;;;;;5994460;29;20120;-72
2023/03/30 10:09:50;;;;;;;7.53;1.70;;;20.30;42.50;;;;;;5995643;29;20129;-73
2023/03/30 10:12:54;;;;;;;8.18;1.15;;;20.30;42.60;;;;;;5995208;29;20098;-71
2023/03/30 10:16:00;;;;;;;5.78;1.00;;;20.30;42.60;;;;;;6010725;29;20030;-72
2023/03/30 10:19:06;;;;;;;4.03;1.08;;;20.40;42.60;;;;;;5995785;29;20409;-72
2023/03/30 10:22:16;;;;;;;8.00;1.88;;;20.40;42.70;;;;;;6008425;29;20090;-74
2023/03/30 10:25:20;;;;;;;5.70;1.30;;;20.50;42.70;;;;;;5993659;29;20110;-73
2023/03/30 10:28:30;;;;;;;5.55;1.95;;;20.50;42.60;;;;;;5994709;29;20464;-74
2023/03/30 10:31:35;;;;;;;11.27;1.85;;;20.60;42.60;;;;;;5993497;29;20034;-73
2023/03/30 10:34:50;;;;;;;3.55;1.20;;;20.70;42.70;;;;;;5992225;29;20041;-73
2023/03/30 10:37:55;;;;;;;6.97;1.83;;;20.70;42.50;;;;;;5992629;29;20463;-72
2023/03/30 10:41:01;;;;;;;12.00;1.55;;;21.00;42.30;;;;;;6007814;29;20174;-71
2023/03/30 10:44:22;;;;;;;7.80;1.42;;;21.30;41.80;;;;;;6024375;29;20041;-72
2023/03/30 10:47:47;;;;;;;5.85;1.30;;;21.40;41.20;;;;;;5997972;29;20464;-73
2023/03/30 10:51:05;;;;;;;15.50;1.55;;;21.50;41.00;;;;;;5994941;29;20033;-73
2023/03/30 10:54:42;;;;;;;10.65;1.80;;;21.40;40.90;;;;;;5993968;29;20356;-73
2023/03/30 10:58:18;;;;;;;5.63;1.60;;;21.30;41.20;;;;;;5993692;29;20031;-73
2023/03/30 11:01:31;;;;;;;10.02;1.98;;;21.50;41.30;;;;;;5994149;29;20053;-72
2023/03/30 11:04:44;;;;;;;11.13;2.15;;;21.70;41.00;;;;;;5992120;29;20045;-74
2023/03/30 11:07:47;;;;;;;6.80;1.92;;;21.90;40.80;;;;;;5991710;29;20102;-73
2023/03/30 11:10:52;;;;;;;7.50;1.98;;;22.00;40.40;;;;;;5992590;29;20022;-71
2023/03/30 11:14:01;;;;;;;6.45;1.38;;;22.20;40.00;;;;;;5993336;29;20039;-73
2023/03/30 11:17:17;;;;;;;7.30;1.90;;;22.50;39.50;;;;;;5992486;29;20112;-72
2023/03/30 11:20:28;;;;;;;10.20;1.90;;;22.80;39.00;;;;;;5991997;29;20114;-73
2023/03/30 11:23:43;;;;;;;7.85;1.80;;;23.20;38.50;;;;;;6023917;29;20391;-73
2023/03/30 11:27:19;;;;;;;3.70;1.40;;;23.60;38.00;;;;;;5992801;29;20046;-73
2023/03/30 11:30:28;;;;;;;12.73;2.08;;;23.80;37.50;;;;;;6010261;29;20087;-72
2023/03/30 11:33:37;;;;;;;9.25;1.25;;;23.80;37.20;;;;;;5991157;29;20112;-76
2023/03/30 11:37:05;;;;;;;10.60;2.03;;;23.80;36.90;;;;;;5992987;29;20049;-71
2023/03/30 11:40:15;;;;;;;2.97;1.40;;;23.80;37.10;;;;;;6005903;29;20034;-74
2023/03/30 11:43:19;;;;;;;4.82;1.55;;;23.70;36.90;;;;;;5990957;29;20429;-75
2023/03/30 11:46:26;;;;;;;6.22;1.50;;;23.60;37.00;;;;;;5992352;29;20042;-73
2023/03/30 11:49:56;;;;;;;11.88;2.30;;;23.40;37.00;;;;;;6021411;29;20034;-74
2023/03/30 11:53:48;;;;;;;15.70;6.22;;;23.10;37.40;;;;;;5954775;29;20519;-71
2023/03/30 11:57:00;;;;;;;9.18;1.88;;;23.00;37.60;;;;;;5948395;29;20042;-73
2023/03/30 12:00:15;;;;;;;9.88;1.88;;;22.80;37.90;;;;;;5954402;29;20445;-73
2023/03/30 12:03:41;;;;;;;7.20;1.25;;;22.90;38.00;;;;;;5939345;29;20130;-72
2023/03/30 12:07:03;;;;;;;7.57;1.52;;;22.90;38.00;;;;;;5969725;29;20082;-73
2023/03/30 12:10:24;;;;;;;3.42;1.45;;;23.10;37.90;;;;;;5954748;29;20338;-73
2023/03/30 12:13:27;;;;;;;8.05;2.22;;;23.50;37.30;;;;;;5970072;29;20046;-72
2023/03/30 12:16:40;;;;;;;4.65;1.70;;;24.30;36.40;;;;;;5939582;29;20122;-72
2023/03/30 12:19:49;;;;;;;6.57;1.58;;;25.00;35.30;;;;;;5953919;29;20165;-73
2023/03/30 12:22:55;;;;;;;5.05;1.45;;;25.80;34.10;;;;;;5954592;29;20045;-72
2023/03/30 12:26:20;;;;;;;6.90;1.70;;;26.60;33.10;;;;;;5969488;29;20429;-73
2023/03/30 12:29:21;;;;;;;8.13;1.80;;;27.30;32.20;;;;;;5975221;29;20045;-74
2023/03/30 12:32:29;;;;;;;5.47;1.65;;;28.10;31.10;;;;;;5992597;29;20049;-72
2023/03/30 12:35:51;;;;;;;;;;;28.70;30.10;;;;;;5990916;29;20325;-72
2023/03/30 12:38:56;;;;;;;4.60;1.35;;;29.40;29.50;;;;;;5989206;29;19909;-76
2023/03/30 12:42:07;;;;;;;9.05;1.73;;;30.10;28.60;;;;;;5989265;29;20042;-74
2023/03/30 12:45:14;;;;;;;7.95;1.88;;;30.80;27.90;;;;;;5974718;29;20519;-71
2023/03/30 12:48:39;;;;;;;9.50;1.50;;;31.20;27.20;;;;;;5991153;29;20025;-73
2023/03/30 12:51:56;;;;;;;8.07;2.30;;;30.70;27.60;;;;;;5989920;29;20052;-73
2023/03/30 12:55:17;;;;;;;5.80;1.77;;;30.50;27.80;;;;;;5991504;29;20034;-74
2023/03/30 12:58:36;;;;;;;5.47;1.40;;;30.30;27.80;;;;;;5991852;29;20477;-74
2023/03/30 13:02:07;;;;;;;2.35;1.08;;;29.70;28.40;;;;;;5990349;29;20050;-72
2023/03/30 13:05:31;;;;;;;7.63;1.65;;;29.40;28.50;;;;;;5991315;29;20022;-73
2023/03/30 13:08:36;;;;;;;6.80;1.33;;;29.10;28.80;;;;;;5990500;29;20046;-72
2023/03/30 13:11:45;;;;;;;8.35;1.17;;;28.80;28.80;;;;;;6005085;29;20042;-73
2023/03/30 13:14:55;;;;;;;5.28;1.33;;;28.20;29.10;;;;;;5991021;29;20100;-72
2023/03/30 13:17:59;;;;;;;5.97;1.02;;;27.60;30.00;;;;;;5988347;29;20510;-73
2023/03/30 13:21:24;;;;;;;16.52;1.92;;;27.10;30.00;;;;;;5989761;29;20042;-73
2023/03/30 13:24:35;;;;;;;14.27;1.73;;;26.70;30.50;;;;;;6019576;29;20132;-73
2023/03/30 13:27:40;;;;;;;8.15;2.15;;;26.40;31.00;;;;;;6004367;29;20038;-71
2023/03/30 13:30:44;;;;;;;9.68;2.30;;;26.10;31.30;;;;;;5991056;29;20043;-72
2023/03/30 13:33:54;;;;;;;9.77;1.83;;;25.80;31.70;;;;;;6000469;29;20027;-73
2023/03/30 13:37:13;;;;;;;6.82;1.45;;;25.60;32.00;;;;;;5979260;29;20056;-72
2023/03/30 13:40:17;;;;;;;8.07;1.95;;;25.40;32.20;;;;;;5993724;29;20092;-72
2023/03/30 13:43:33;;;;;;;6.72;1.90;;;25.20;32.50;;;;;;5995363;29;20401;-74
2023/03/30 13:46:36;;;;;;;7.10;1.63;;;24.90;32.80;;;;;;5994181;29;20134;-73
2023/03/30 13:49:57;;;;;;;10.45;1.70;;;24.80;33.10;;;;;;5996045;29;20038;-72
2023/03/30 13:53:01;;;;;;;10.15;2.22;;;24.80;33.20;;;;;;5993298;29;20057;-73
2023/03/30 13:56:07;;;;;;;12.13;1.75;;;24.70;33.20;;;;;;5995238;29;20126;-72
2023/03/30 13:59:20;;;;;;;7.78;2.08;;;24.80;33.20;;;;;;5995163;29;20037;-74
2023/03/30 14:02:22;;;;;;;5.72;1.63;;;24.90;33.10;;;;;;5995227;29;20042;-71
2023/03/30 14:05:26;;;;;;;10.02;2.65;;;24.90;33.20;;;;;;5995544;29;20534;-73
2023/03/30 14:08:29;;;;;;;10.52;3.67;;;24.80;33.30;;;;;;5995389;29;20421;-73
2023/03/30 14:11:37;;;;;;;8.45;1.95;;;24.90;33.40;;;;;;5994813;29;20029;-70
2023/03/30 14:14:45;;;;;;;7.63;1.73;;;24.90;33.40;;;;;;6023303;29;20440;-73
2023/03/30 14:17:49;;;;;;;6.72;2.08;;;24.90;33.40;;;;;;5995687;29;20041;-72
2023/03/30 14:20:59;;;;;;;10.85;2.03;;;24.90;33.40;;;;;;5992618;29;20038;-72
2023/03/30 14:24:03;;;;;;;3.60;1.27;;;24.70;33.40;;;;;;5994080;29;20043;-72
2023/03/30 14:27:11;;;;;;;5.18;1.65;;;24.80;33.50;;;;;;5994267;29;20408;-73
2023/03/30 14:30:22;;;;;;;6.82;1.40;;;24.70;33.70;;;;;;5994545;29;20146;-73
2023/03/30 14:33:24;;;;;;;9.65;1.90;;;24.80;33.80;;;;;;5995359;29;20130;-73
2023/03/30 14:36:25;;;;;;;4.60;1.45;;;24.90;33.70;;;;;;5992887;29;20094;-74
2023/03/30 14:39:28;;;;;;;7.63;2.05;;;25.00;33.60;;;;;;5992717;29;20057;-73
2023/03/30 14:42:32;;;;;;;8.02;1.30;;;25.00;33.60;;;;;;6022489;29;20065;-72
2023/03/30 14:45:33;;;;;;;9.75;1.80;;;24.90;33.60;;;;;;5991746;29;20036;-73
2023/03/30 14:48:37;;;;;;;8.32;1.50;;;24.90;33.80;;;;;;5994952;29;20022;-73
2023/03/30 14:51:45;;;;;;;4.88;1.35;;;24.70;34.00;;;;;;5991493;29;20046;-72
2023/03/30 14:54:53;;;;;;;7.80;1.80;;;24.70;34.20;;;;;;5994364;29;20026;-72
2023/03/30 14:57:56;;;;;;;6.03;1.70;;;24.60;34.40;;;;;;5993264;29;20062;-73
2023/03/30 15:00:59;;;;;;;6.72;1.60;;;24.50;34.40;;;;;;5994532;29;20106;-73
2023/03/30 15:04:12;;;;;;;9.23;1.73;;;24.50;34.60;;;;;;5994660;29;20497;-71
2023/03/30 15:07:15;;;;;;;8.52;1.92;;;24.50;34.70;;;;;;5992358;29;20098;-74
2023/03/30 15:10:22;;;;;;;8.05;1.63;;;24.50;34.70;;;;;;6009028;29;20101;-71
2023/03/30 15:13:30;;;;;;;3.78;1.40;;;24.50;34.70;;;;;;6020529;29;20037;-72
2023/03/30 15:16:32;;;;;;;9.38;2.05;;;24.60;34.60;;;;;;5993162;29;20134;-72
2023/03/30 15:19:36;;;;;;;5.70;1.55;;;24.60;34.70;;;;;;5993734;29;20100;-73
2023/03/30 15:22:56;;;;;;;5.38;1.85;;;24.50;34.80;;;;;;6023991;29;20030;-73
2023/03/30 15:26:02;;;;;;;10.57;1.83;;;24.40;35.00;;;;;;5993260;29;20065;-70
2023/03/30 15:29:03;;;;;;;7.90;1.92;;;24.30;35.20;;;;;;5993754;29;20512;-73
2023/03/30 15:32:06;;;;;;;20.02;2.88;;;24.20;35.40;;;;;;5992843;29;20440;-72
2023/03/30 15:35:13;;;;;;;8.98;1.70;;;24.10;35.70;;;;;;5992686;29;20029;-72
2023/03/30 15:38:16;;;;;;;12.02;3.83;;;24.10;35.80;;;;;;5992318;29;20076;-72
2023/03/30 15:41:21;;;;;;;20.40;5.60;;;24.10;35.90;;;;;;5990180;29;20049;-72
2023/03/30 15:44:23;;;;;;;8.77;2.75;;;24.00;35.90;;;;;;5991221;29;20037;-72
2023/03/30 15:47:24;;;;;;;11.98;3.08;;;23.90;36.00;;;;;;5991738;29;20132;-72
2023/03/30 15:50:25;;;;;;;5.13;2.30;;;23.90;36.20;;;;;;5993517;29;20116;-72
2023/03/30 15:53:41;;;;;;;9.20;2.95;;;23.80;36.30;;;;;;5991856;29;20038;-73
2023/03/30 15:57:00;;;;;;;9.30;2.90;;;23.80;36.50;;;;;;5991595;29;20054;-73
2023/03/30 16:00:10;;;;;;;5.15;1.70;;;23.70;36.50;;;;;;5992012;29;20046;-73
2023/03/30 16:03:18;;;;;;;15.82;2.88;;;23.60;36.50;;;;;;5993045;29;20053;-74
2023/03/30 16:06:20;;;;;;;9.43;2.40;;;23.60;36.60;;;;;;5991929;29;20436;-72
2023/03/30 16:09:21;;;;;;;8.07;1.95;;;23.60;36.70;;;;;;5991496;29;20038;-73
2023/03/30 16:12:28;;;;;;;12.38;3.10;;;23.50;36.70;;;;;;5992015;29;20050;-73
2023/03/30 16:15:31;;;;;;;15.57;3.33;;;23.60;36.60;;;;;;5992932;29;20045;-71
2023/03/30 16:18:32;;;;;;;12.32;2.63;;;23.60;36.30;;;;;;5988848;29;20144;-70
2023/03/30 16:21:33;;;;;;;9.85;2.47;;;23.70;36.00;;;;;;5989466;29;20048;-70
2023/03/30 16:24:35;;;;;;;14.93;4.20;;;23.60;35.90;;;;;;5990774;29;20045;-72
2023/03/30 16:27:36;;;;;;;11.98;4.97;;;23.60;36.00;;;;;;5991597;29;20026;-73
2023/03/30 16:30:38;;;;;;;6.45;1.42;;;23.60;36.10;;;;;;5991473;29;20021;-70